createdAt,value
2019-01-20T00:00:39.392Z,96.06
2019-01-20T00:03:08.464Z,95.83
2019-01-20T00:05:38.460Z,95.90
2019-01-20T00:08:07.650Z,95.77
2019-01-20T00:10:41.838Z,95.06
2019-01-20T00:13:31.621Z,94.89
2019-01-20T00:16:01.403Z,94.42
2019-01-20T00:18:35.499Z,95.05
2019-01-20T00:21:04.906Z,95.70
2019-01-20T00:23:34.039Z,96.15
2019-01-20T00:26:03.482Z,96.47
2019-01-20T00:28:32.562Z,96.83
2019-01-20T00:31:01.705Z,97.42
2019-01-20T00:33:39.850Z,97.38
2019-01-20T00:36:37.920Z,97.75
2019-01-20T00:39:07.547Z,98.00
2019-01-20T00:41:36.850Z,98.08
2019-01-20T00:44:06.067Z,98.25
2019-01-20T00:46:42.733Z,98.27
2019-01-20T00:51:51.023Z,98.72
2019-01-20T00:54:20.168Z,98.57
2019-01-20T00:59:25.151Z,95.87
2019-01-20T01:01:54.314Z,96.50
2019-01-20T01:04:23.418Z,96.90
2019-01-20T01:09:29.484Z,96.85
2019-01-20T01:12:03.052Z,96.38
2019-01-20T01:14:34.263Z,96.26
2019-01-20T01:17:07.295Z,95.85
2019-01-20T01:19:40.635Z,94.71
2019-01-20T01:22:10.588Z,92.82
2019-01-20T01:24:45.167Z,93.66
2019-01-20T01:27:14.280Z,92.98
2019-01-20T01:32:18.858Z,92.53
2019-01-20T01:34:59.615Z,93.15
2019-01-20T01:37:32.506Z,93.53
2019-01-20T01:40:16.319Z,93.74
2019-01-20T01:42:45.992Z,94.59
2019-01-20T01:45:28.163Z,94.97
2019-01-20T01:47:57.245Z,95.42
2019-01-20T01:50:26.624Z,96.05
2019-01-20T01:52:55.673Z,96.26
2019-01-20T01:55:24.754Z,96.36
2019-01-20T01:57:54.164Z,96.42
2019-01-20T02:00:28.747Z,96.64
2019-01-20T02:02:57.895Z,96.91
2019-01-20T02:05:26.977Z,96.81
2019-01-20T02:07:56.303Z,94.59
2019-01-20T02:10:25.371Z,94.70
2019-01-20T02:12:54.452Z,94.61
2019-01-20T02:15:36.447Z,95.47
2019-01-20T02:18:07.440Z,95.96
2019-01-20T02:20:40.451Z,96.58
2019-01-20T02:23:09.517Z,96.84
2019-01-20T02:25:39.614Z,97.57
2019-01-20T02:30:44.429Z,97.95
2019-01-20T02:33:13.492Z,97.86
2019-01-20T02:35:42.563Z,97.80
2019-01-20T02:38:12.212Z,97.46
2019-01-20T02:40:41.266Z,97.19
2019-01-20T02:43:10.860Z,97.26
2019-01-20T02:45:40.151Z,97.27
2019-01-20T02:48:09.228Z,96.89
2019-01-20T02:50:38.279Z,96.67
2019-01-20T02:53:12.352Z,96.44
2019-01-20T02:55:41.455Z,96.33
2019-01-20T02:58:14.015Z,95.61
2019-01-20T03:00:43.055Z,95.57
2019-01-20T03:03:12.127Z,95.66
2019-01-20T03:05:54.506Z,95.89
2019-01-20T03:08:23.798Z,95.78
2019-01-20T03:14:10.698Z,96.39
2019-01-20T03:16:41.243Z,96.39
2019-01-20T03:19:10.332Z,96.17
2019-01-20T03:29:11.277Z,96.05
2019-01-20T03:31:44.833Z,95.89
2019-01-20T03:34:14.147Z,96.02
2019-01-20T03:39:18.404Z,95.51
2019-01-20T03:41:47.480Z,95.55
2019-01-20T03:46:53.528Z,94.75
2019-01-20T03:49:22.604Z,94.93
2019-01-20T03:51:52.167Z,94.73
2019-01-20T03:54:21.305Z,94.71
2019-01-20T03:59:29.061Z,95.47
2019-01-20T04:01:58.164Z,95.61
2019-01-20T04:04:27.241Z,94.97
2019-01-20T04:06:56.355Z,93.04
2019-01-20T04:09:26.568Z,91.94
2019-01-20T04:11:59.017Z,90.57
2019-01-20T04:14:28.203Z,89.93
2019-01-20T04:17:04.539Z,90.56
2019-01-20T04:19:33.600Z,90.99
2019-01-20T04:22:10.177Z,92.07
2019-01-20T04:24:39.263Z,92.59
2019-01-20T04:27:09.241Z,93.30
2019-01-20T04:29:38.341Z,93.38
2019-01-20T04:34:43.324Z,94.02
2019-01-20T04:37:12.904Z,94.56
2019-01-20T04:39:55.920Z,94.94
2019-01-20T04:42:29.199Z,95.24
2019-01-20T04:47:33.813Z,95.53
2019-01-20T04:50:08.679Z,95.54
2019-01-20T04:52:37.786Z,94.50
2019-01-20T04:55:08.743Z,93.89
2019-01-20T05:00:16.836Z,92.60
2019-01-20T05:02:57.953Z,91.64
2019-01-20T05:05:27.022Z,91.76
2019-01-20T05:08:05.676Z,92.48
2019-01-20T05:10:38.631Z,93.14
2019-01-20T05:13:09.658Z,92.94
2019-01-20T05:15:39.363Z,93.03
2019-01-20T05:18:08.536Z,93.04
2019-01-20T05:20:38.512Z,92.87
2019-01-20T05:23:07.570Z,92.88
2019-01-20T05:25:36.922Z,94.08
2019-01-20T05:28:07.009Z,94.82
2019-01-20T05:30:36.072Z,95.35
2019-01-20T05:33:07.209Z,94.95
2019-01-20T05:35:54.765Z,94.78
2019-01-20T05:38:23.958Z,94.78
2019-01-20T05:40:54.942Z,94.96
2019-01-20T05:43:23.997Z,94.87
2019-01-20T05:45:53.047Z,94.53
2019-01-20T05:48:22.416Z,94.48
2019-01-20T05:50:51.458Z,94.44
2019-01-20T05:53:20.516Z,94.20
2019-01-20T05:56:18.185Z,93.65
2019-01-20T05:59:03.800Z,94.16
2019-01-20T06:01:47.640Z,94.66
2019-01-20T06:04:17.603Z,95.32
2019-01-20T06:06:49.057Z,95.37
2019-01-20T06:09:18.108Z,95.88
2019-01-20T06:11:56.472Z,95.73
2019-01-20T06:14:25.531Z,95.79
2019-01-20T06:17:10.069Z,95.39
2019-01-20T06:19:54.134Z,95.29
2019-01-20T06:22:23.335Z,94.85
2019-01-20T06:25:02.214Z,94.33
2019-01-20T06:27:33.708Z,95.10
2019-01-20T06:30:02.784Z,95.33
2019-01-20T06:32:31.871Z,95.35
2019-01-20T06:35:03.852Z,95.12
2019-01-20T06:37:32.927Z,94.88
2019-01-20T06:40:16.348Z,94.61
2019-01-20T06:42:45.440Z,94.53
2019-01-20T06:45:32.099Z,93.89
2019-01-20T06:48:01.157Z,94.22
2019-01-20T06:53:09.588Z,94.24
2019-01-20T06:55:38.646Z,94.14
2019-01-20T06:58:08.245Z,93.77
2019-01-20T07:00:37.310Z,94.09
2019-01-20T07:05:45.389Z,93.30
2019-01-20T07:08:14.456Z,92.67
2019-01-20T07:10:43.699Z,91.14
2019-01-20T07:13:25.276Z,91.62
2019-01-20T07:18:40.098Z,92.90
2019-01-20T07:24:04.948Z,92.42
2019-01-20T07:26:34.004Z,91.95
2019-01-20T07:31:38.761Z,89.64
2019-01-20T07:34:08.869Z,89.48
2019-01-20T07:36:37.995Z,89.07
2019-01-20T07:39:12.779Z,89.05
2019-01-20T07:41:41.839Z,89.92
2019-01-20T07:44:36.334Z,89.95
2019-01-20T07:47:05.425Z,89.93
2019-01-20T07:49:34.476Z,89.67
2019-01-20T07:52:05.472Z,88.82
2019-01-20T07:54:34.545Z,89.46
2019-01-20T07:57:16.587Z,89.14
2019-01-20T07:59:45.649Z,88.20
2019-01-20T08:02:14.699Z,88.27
2019-01-20T08:04:43.773Z,88.33
2019-01-20T08:07:18.316Z,88.00
2019-01-20T08:09:48.380Z,88.32
2019-01-20T08:12:23.462Z,87.56
2019-01-20T08:14:46.507Z,86.03
2019-01-20T08:20:09.383Z,85.18
2019-01-20T08:22:38.421Z,85.86
2019-01-20T08:25:15.510Z,87.02
2019-01-20T08:27:53.385Z,87.14
2019-01-20T08:30:23.511Z,85.23
2019-01-20T08:32:52.579Z,85.09
2019-01-20T08:38:02.079Z,83.73
2019-01-20T08:43:16.748Z,83.11
2019-01-20T08:46:04.827Z,82.32
2019-01-20T08:51:14.844Z,77.92
2019-01-20T08:53:43.927Z,77.65
2019-01-20T08:56:12.992Z,77.75
2019-01-20T08:58:42.051Z,76.88
2019-01-20T09:01:11.309Z,74.14
2019-01-20T09:03:40.383Z,74.39
2019-01-20T09:06:09.448Z,74.61
2019-01-20T09:11:20.237Z,70.17
2019-01-20T09:16:36.348Z,64.07
2019-01-20T09:19:05.384Z,61.36
2019-01-20T09:21:34.476Z,63.26
2019-01-20T09:24:03.537Z,57.41
2019-01-20T09:26:33.550Z,55.38
2019-01-20T09:29:02.619Z,54.91
2019-01-20T09:31:37.912Z,55.93
2019-01-20T09:34:07.237Z,57.16
2019-01-20T09:39:11.973Z,59.92
2019-01-20T09:41:48.639Z,61.96
2019-01-20T09:44:17.704Z,57.73
2019-01-20T09:46:46.759Z,56.77
2019-01-20T09:49:15.818Z,57.90
2019-01-20T09:51:46.205Z,53.35
2019-01-20T09:54:15.245Z,54.81
2019-01-20T09:56:44.311Z,59.02
2019-01-20T09:59:13.372Z,57.96
2019-01-20T10:01:43.360Z,57.91
2019-01-20T10:04:12.423Z,59.46
2019-01-20T10:06:41.468Z,58.75
2019-01-20T10:09:10.566Z,57.60
2019-01-20T10:11:39.613Z,57.17
2019-01-20T10:14:18.810Z,55.68
2019-01-20T10:16:48.277Z,55.20
2019-01-20T10:19:17.327Z,56.12
2019-01-20T10:21:46.386Z,54.66
2019-01-20T10:26:51.891Z,57.69
2019-01-20T10:29:25.155Z,54.78
2019-01-20T10:31:54.452Z,54.97
2019-01-20T10:34:23.649Z,55.70
2019-01-20T10:36:52.714Z,55.86
2019-01-20T10:39:21.763Z,55.89
2019-01-20T10:41:50.843Z,56.33
2019-01-20T10:44:28.001Z,57.75
2019-01-20T10:46:57.060Z,57.04
2019-01-20T10:49:30.732Z,57.46
2019-01-20T10:51:59.768Z,57.96
2019-01-20T10:54:29.865Z,57.71
2019-01-20T10:57:00.283Z,58.08
2019-01-20T10:59:33.353Z,59.97
2019-01-20T11:02:02.422Z,57.55
2019-01-20T11:04:31.446Z,57.99
2019-01-20T11:07:01.232Z,58.10
2019-01-20T11:09:31.225Z,58.50
2019-01-20T11:12:04.874Z,60.07
2019-01-20T11:14:34.012Z,58.55
2019-01-20T11:17:03.079Z,57.10
2019-01-20T11:19:32.485Z,58.74
2019-01-20T11:22:01.532Z,58.92
2019-01-20T11:24:31.558Z,57.62
2019-01-20T11:27:09.068Z,57.46
2019-01-20T11:29:39.031Z,58.66
2019-01-20T11:32:08.121Z,58.91
2019-01-20T11:37:20.518Z,59.11
2019-01-20T11:39:49.547Z,59.04
2019-01-20T11:42:27.082Z,60.96
2019-01-20T11:44:56.139Z,58.91
2019-01-20T11:47:26.126Z,59.81
2019-01-20T11:49:55.189Z,59.43
2019-01-20T11:52:26.150Z,59.17
2019-01-20T11:54:55.218Z,59.74
2019-01-20T11:57:24.271Z,60.61
2019-01-20T12:00:04.021Z,62.38
2019-01-20T12:02:33.563Z,61.68
2019-01-20T12:07:38.624Z,62.37
2019-01-20T12:10:09.223Z,63.06
2019-01-20T12:12:38.427Z,64.23
2019-01-20T12:15:10.352Z,63.39
2019-01-20T12:17:39.476Z,65.93
2019-01-20T12:20:08.539Z,66.18
2019-01-20T12:22:37.637Z,65.33
2019-01-20T12:25:08.682Z,63.50
2019-01-20T12:27:38.286Z,68.08
2019-01-20T12:30:10.996Z,68.60
2019-01-20T12:32:40.328Z,62.49
2019-01-20T12:35:09.728Z,66.43
2019-01-20T12:37:38.792Z,64.85
2019-01-20T12:40:12.121Z,62.66
2019-01-20T12:42:54.199Z,61.98
2019-01-20T12:45:24.850Z,64.15
2019-01-20T12:47:58.775Z,63.91
2019-01-20T12:50:28.339Z,69.93
2019-01-20T12:53:15.144Z,68.07
2019-01-20T12:55:49.274Z,67.69
2019-01-20T12:58:21.971Z,70.06
2019-01-20T13:01:01.093Z,72.53
2019-01-20T13:03:30.617Z,68.98
2019-01-20T13:08:38.414Z,67.49
2019-01-20T13:11:18.011Z,71.27
2019-01-20T13:16:23.946Z,69.52
2019-01-20T13:18:56.607Z,73.24
2019-01-20T13:21:25.649Z,71.11
2019-01-20T13:23:55.443Z,69.88
2019-01-20T13:26:25.394Z,70.12
2019-01-20T13:29:00.760Z,71.55
2019-01-20T13:31:29.853Z,70.42
2019-01-20T13:33:58.889Z,70.63
2019-01-20T13:36:42.707Z,73.18
2019-01-20T13:39:12.160Z,74.79
2019-01-20T13:41:41.208Z,72.34
2019-01-20T13:44:13.387Z,70.86
2019-01-20T13:46:51.352Z,70.59
2019-01-20T13:49:24.753Z,70.25
2019-01-20T13:51:54.045Z,71.97
2019-01-20T13:54:27.503Z,74.48
2019-01-20T13:56:57.096Z,73.72
2019-01-20T13:59:41.015Z,74.04
2019-01-20T14:04:45.967Z,72.39
2019-01-20T14:07:20.403Z,72.82
2019-01-20T14:09:49.451Z,71.66
2019-01-20T14:12:18.855Z,70.85
2019-01-20T14:17:23.811Z,70.53
2019-01-20T14:22:30.883Z,72.10
2019-01-20T14:27:36.346Z,72.24
2019-01-20T14:30:05.393Z,71.24
2019-01-20T14:32:34.460Z,70.80
2019-01-20T14:35:03.539Z,70.81
2019-01-20T14:37:32.705Z,74.08
2019-01-20T14:40:01.758Z,72.68
2019-01-20T14:42:31.958Z,71.71
2019-01-20T14:45:01.571Z,75.86
2019-01-20T14:47:48.006Z,78.31
2019-01-20T14:50:22.343Z,77.34
2019-01-20T14:52:51.433Z,76.71
2019-01-20T14:55:20.541Z,74.91
2019-01-20T14:57:50.062Z,74.88
2019-01-20T15:00:34.296Z,75.50
2019-01-20T15:03:09.178Z,76.57
2019-01-20T15:08:18.892Z,77.18
2019-01-20T15:10:56.638Z,79.11
2019-01-20T15:13:25.691Z,76.42
2019-01-20T15:18:38.148Z,74.88
2019-01-20T15:21:09.267Z,76.46
2019-01-20T15:26:15.096Z,76.24
2019-01-20T15:28:47.186Z,76.54
2019-01-20T15:31:16.357Z,77.46
2019-01-20T15:34:02.948Z,78.16
2019-01-20T15:36:31.985Z,77.99
2019-01-20T15:41:42.099Z,78.32
2019-01-20T15:46:50.550Z,78.87
2019-01-20T15:49:20.069Z,83.72
2019-01-20T15:51:56.268Z,84.29
2019-01-20T15:54:25.657Z,85.94
2019-01-20T15:56:54.740Z,82.45
2019-01-20T15:59:26.437Z,85.87
2019-01-20T16:01:55.824Z,83.73
2019-01-20T16:04:25.813Z,84.92
2019-01-20T16:06:54.891Z,86.06
2019-01-20T16:09:23.962Z,84.11
2019-01-20T16:11:53.027Z,82.78
2019-01-20T16:14:23.829Z,84.85
2019-01-20T16:17:13.249Z,87.74
2019-01-20T16:19:51.333Z,87.40
2019-01-20T16:22:20.832Z,84.71
2019-01-20T16:25:10.166Z,85.81
2019-01-20T16:30:19.094Z,87.33
2019-01-20T16:32:57.262Z,87.80
2019-01-20T16:35:26.729Z,87.98
2019-01-20T16:37:55.771Z,84.81
2019-01-20T16:40:24.851Z,84.96
2019-01-20T16:43:09.540Z,89.16
2019-01-20T16:48:19.577Z,89.57
2019-01-20T16:50:48.653Z,87.11
2019-01-20T16:53:17.838Z,86.92
2019-01-20T16:55:49.908Z,88.01
2019-01-20T16:58:18.968Z,89.93
2019-01-20T17:00:50.184Z,91.58
2019-01-20T17:03:19.241Z,90.56
2019-01-20T17:05:48.321Z,90.76
2019-01-20T17:08:17.736Z,88.82
2019-01-20T17:10:46.817Z,87.35
2019-01-20T17:13:16.167Z,86.44
2019-01-20T17:18:22.268Z,86.07
2019-01-20T17:21:06.199Z,86.46
2019-01-20T17:23:37.464Z,85.98
2019-01-20T17:26:08.529Z,85.51
2019-01-20T17:28:41.502Z,85.99
2019-01-20T17:31:10.896Z,85.96
2019-01-20T17:33:52.465Z,86.47
2019-01-20T17:36:21.519Z,85.24
2019-01-20T17:38:50.664Z,85.17
2019-01-20T17:41:20.095Z,85.31
2019-01-20T17:43:49.199Z,85.72
2019-01-20T17:46:18.268Z,87.48
2019-01-20T17:48:47.307Z,86.86
2019-01-20T17:51:16.381Z,88.32
2019-01-20T17:53:45.446Z,87.79
2019-01-20T17:56:14.539Z,86.27
2019-01-20T17:58:47.029Z,85.97
2019-01-20T18:01:16.093Z,86.14
2019-01-20T18:04:06.784Z,86.22
2019-01-20T18:09:13.691Z,85.56
2019-01-20T18:11:44.826Z,86.47
2019-01-20T18:14:13.919Z,86.05
2019-01-20T18:16:44.982Z,86.14
2019-01-20T18:19:14.184Z,86.07
2019-01-20T18:21:44.250Z,85.84
2019-01-20T18:24:13.538Z,86.42
2019-01-20T18:29:21.524Z,87.68
2019-01-20T18:31:55.843Z,87.12
2019-01-20T18:34:24.928Z,86.79
2019-01-20T18:39:32.902Z,85.82
2019-01-20T18:42:03.885Z,85.95
2019-01-20T18:44:33.904Z,85.78
2019-01-20T18:47:11.699Z,86.20
2019-01-20T18:49:46.334Z,86.62
2019-01-20T18:52:15.394Z,86.69
2019-01-20T18:54:46.541Z,85.71
2019-01-20T18:57:15.591Z,87.15
2019-01-20T18:59:44.657Z,86.70
2019-01-20T19:02:14.789Z,87.27
2019-01-20T19:05:01.105Z,87.35
2019-01-20T19:07:30.271Z,88.18
2019-01-20T19:10:03.818Z,87.73
2019-01-20T19:12:32.995Z,88.31
2019-01-20T19:15:04.313Z,89.64
2019-01-20T19:20:14.137Z,88.87
2019-01-20T19:22:43.207Z,88.70
2019-01-20T19:25:13.517Z,89.08
2019-01-20T19:27:46.875Z,88.59
2019-01-20T19:30:17.982Z,89.59
2019-01-20T19:32:49.971Z,90.29
2019-01-20T19:35:19.963Z,89.71
2019-01-20T19:37:49.063Z,89.69
2019-01-20T19:40:18.151Z,90.32
2019-01-20T19:42:47.219Z,90.21
2019-01-20T19:45:19.580Z,89.50
2019-01-20T19:47:49.174Z,89.14
2019-01-20T19:50:33.870Z,90.96
2019-01-20T19:53:07.226Z,89.71
2019-01-20T19:55:37.423Z,89.22
2019-01-20T19:58:07.531Z,88.76
2019-01-20T20:00:36.647Z,88.22
2019-01-20T20:03:06.875Z,88.27
2019-01-20T20:05:35.924Z,88.29
2019-01-20T20:08:05.057Z,88.76
2019-01-20T20:10:34.384Z,89.05
2019-01-20T20:13:03.439Z,89.00
2019-01-20T20:18:13.182Z,88.95
2019-01-20T20:20:45.680Z,88.79
2019-01-20T20:25:50.770Z,88.71
2019-01-20T20:28:23.680Z,88.76
2019-01-20T20:30:54.696Z,88.95
2019-01-20T20:33:23.782Z,88.63
2019-01-20T20:35:52.885Z,88.23
2019-01-20T20:38:22.076Z,88.66
2019-01-20T20:40:51.183Z,88.54
2019-01-20T20:43:20.244Z,88.50
2019-01-20T20:48:28.098Z,88.24
2019-01-20T20:50:57.478Z,88.57
2019-01-20T20:53:26.596Z,88.73
2019-01-20T20:55:55.726Z,89.71
2019-01-20T20:58:24.775Z,88.91
2019-01-20T21:00:57.848Z,88.67
2019-01-20T21:03:26.893Z,88.75
2019-01-20T21:05:57.099Z,89.74
2019-01-20T21:08:26.988Z,88.90
2019-01-20T21:11:04.157Z,88.61
2019-01-20T21:13:34.207Z,88.90
2019-01-20T21:18:53.040Z,89.26
2019-01-20T21:21:26.641Z,88.28
2019-01-20T21:24:04.766Z,88.32
2019-01-20T21:26:44.598Z,90.06
2019-01-20T21:29:14.036Z,90.21
2019-01-20T21:31:45.208Z,88.70
2019-01-20T21:34:14.289Z,89.55
2019-01-20T21:36:46.003Z,90.21
2019-01-20T21:39:21.866Z,89.45
2019-01-20T21:41:52.809Z,88.81
2019-01-20T21:44:22.032Z,88.17
2019-01-20T21:46:51.088Z,88.62
2019-01-20T21:49:23.935Z,88.56
2019-01-20T21:51:53.202Z,88.45
2019-01-20T21:54:29.668Z,88.51
2019-01-20T21:57:28.095Z,87.50
2019-01-20T22:00:06.397Z,88.98
2019-01-20T22:02:38.934Z,88.72
2019-01-20T22:05:09.368Z,89.13
2019-01-20T22:10:23.764Z,89.72
2019-01-20T22:15:31.722Z,89.35
2019-01-20T22:18:00.951Z,89.22
2019-01-20T22:20:30.052Z,89.20
2019-01-20T22:25:35.505Z,89.16
2019-01-20T22:28:04.571Z,90.11
2019-01-20T22:35:57.609Z,90.97
2019-01-20T22:38:31.185Z,90.25
2019-01-20T22:43:44.422Z,89.83
2019-01-20T22:51:36.951Z,88.90
2019-01-20T22:54:08.935Z,88.90
2019-01-20T22:56:42.160Z,88.68
2019-01-20T22:59:17.045Z,88.53
2019-01-20T23:01:58.557Z,89.07
2019-01-20T23:04:28.572Z,88.28
2019-01-20T23:06:57.714Z,88.17
2019-01-20T23:09:27.683Z,89.60
2019-01-20T23:11:56.759Z,89.31
2019-01-20T23:17:26.504Z,88.62
2019-01-20T23:19:56.492Z,89.37
2019-01-20T23:25:06.498Z,89.22
2019-01-20T23:27:35.550Z,89.43
2019-01-20T23:30:04.594Z,89.51
2019-01-20T23:32:34.563Z,90.16
2019-01-20T23:35:04.719Z,91.01
2019-01-20T23:37:46.064Z,90.41
2019-01-20T23:40:16.979Z,90.11
2019-01-20T23:42:46.063Z,90.00
2019-01-20T23:45:18.331Z,90.71
2019-01-20T23:47:52.105Z,90.33
2019-01-20T23:50:27.243Z,90.09
2019-01-20T23:52:56.616Z,89.93
2019-01-20T23:55:50.767Z,90.14
2019-01-20T23:58:21.106Z,89.71
